Info for pilots

Image

Airfield Info:

EBUL
N51 08.7 - E003 28.6
ELEV 95' / 29m
RWY 07 / 25
799m * 45m (CIV) - 2980m (MIL)
Ursel Radio 135,125
Tel Aero Club Brugge : +32(0)9 374 25 75
Tel Vliegclub Ursel : +32(0)9 374 12 90

Operational Hours
FRI: 1300 - SS+30 MIN
SAT, SUN and HOL: TKOF and LDG: 0900 - SS+30 MIN
After 1900 to SS+30 MIN: only LDG allowed (PN)

Local Traffic Regulations
The use of the AD is subject to PPR from the OPR;
AD given in concession to the CIV club outside MIL ACT;
Solo training flights can only be performed after two reconnaissance flights with instructor. The solo training flight must be performed within six weeks after the first reconnaissance flight;
Jet aircraft operations not allowed.
Obstacles: trees between 10M AGL and 22M AGL, caution when crosswind:
North of the RWY, 75M from CL, along the whole length of the RWY;
South of the RWY, 75M from CL, and at THR RWY 25 from THR RWY 07 to 140M east of THR RWY 07

Image

Image

Watch out!

Flight Procedures
RWY 07 and 25 left hand circuit, 1.200 FT

Taxi procedures:
RWY 07 (TKOF):
taxi on the north side of the RWY to the HLDG position of RWY 07

RWY 07 (LDG):
after landing roll out to the second intersection (THR RWY 25), turn left, turn left again, taxi via the TWY to the first intersection, turn left, cross the RWY (check for landing ACFT), taxi on the south side of the RWY to the AD reporting office

RWY 25 (TKOF):
taxi on the north side of the first intersection, turn left, next turn right, taxi via the TWY to the second intersection, turn right, taxi to the HLDG of RWY 25

RWY 25 (LDG):
after landing roll out to the end of the RWY, taxi on the south side of the RWY to the AD reporting office.

Image

Current Metars - Auto refresh

EBOS - Oostende
2017/07/25 18:20 EBOS 251820Z 32012KT 9999 SCT016 BKN048 17/13 Q1014 NOSIG


EBAW - Antwerpen
2017/07/25 18:20 EBAW 251820Z 32015KT 9999 FEW024 SCT045 18/13 Q1012 NOSIG


EBBR - Brussel
2017/07/25 18:20 EBBR 251820Z 31015KT 9999 FEW027 BKN048 18/12 Q1012 NOSIG

Source : NOAA.GOV

Current TAFs - Auto refresh

EBOS - Oostende
2017/07/25 18:27 TAF EBOS 251710Z 2518/2624 33013KT 9999 SCT025 SCT040 BECMG 2605/2607 22007KT BECMG 2617/2619 22015G25KT BKN014

EBAW - Antwerpen
2017/07/25 18:27 TAF TAF EBAW 251710Z 2518/2603 32009KT 9999 SCT030 TEMPO 2523/2603 SCT009 BKN012

EBBR - Brussel
2017/07/25 18:27 TAF TAF EBBR 251710Z 2518/2624 32009KT 9999 SCT030 TEMPO 2523/2606 SCT009 BKN012 PROB30 2602/2606 3000 SHRA BKN006 TEMPO 2621/2624 4000 -DZRA BKN014

Source : NOAA.GOV
Image

Webcam

Direction runway 07 :


Image

Sorry, PPR Requests are offline for the moment